createdAt,value
2023-03-29T06:40:11.844Z,1027.16
2023-03-29T06:40:22.896Z,1027.20
2023-03-29T06:40:33.039Z,1027.15
2023-03-29T06:40:43.037Z,1027.10
2023-03-29T06:40:53.253Z,1027.20
2023-03-29T06:41:03.625Z,1027.05
2023-03-29T06:41:13.405Z,1027.16
2023-03-29T06:41:23.699Z,1027.19
2023-03-29T06:41:33.780Z,1027.16
2023-03-29T06:41:43.892Z,1027.24
2023-03-29T06:41:54.035Z,1027.23
2023-03-29T06:42:16.869Z,1027.20
2023-03-29T06:42:26.514Z,1027.17
2023-03-29T06:42:32.441Z,1027.07
2023-03-29T06:42:42.573Z,1027.17
2023-03-29T06:42:52.578Z,1027.32
2023-03-29T06:43:02.724Z,1027.27
2023-03-29T06:43:12.844Z,1027.30
2023-03-29T06:43:33.182Z,1027.16
2023-03-29T06:43:43.117Z,1027.30
2023-03-29T06:43:53.236Z,1027.26
2023-03-29T06:44:03.350Z,1027.12
2023-03-29T06:44:13.470Z,1027.26
2023-03-29T06:44:23.628Z,1027.24
2023-03-29T06:44:33.818Z,1027.17
2023-03-29T06:44:43.922Z,1027.22
2023-03-29T06:44:54.021Z,1027.18
2023-03-29T06:45:04.065Z,1027.22
2023-03-29T06:45:14.163Z,1027.09
2023-03-29T06:45:25.296Z,1027.32
2023-03-29T06:45:34.401Z,1027.21
2023-03-29T06:45:44.573Z,1027.02
2023-03-29T06:45:54.748Z,1027.50
2023-03-29T06:46:04.895Z,1027.20
2023-03-29T06:46:15.003Z,1027.23
2023-03-29T06:46:25.082Z,1027.34
2023-03-29T06:46:35.161Z,1027.31
2023-03-29T06:46:45.316Z,1027.24
2023-03-29T06:46:55.494Z,1027.71
2023-03-29T06:47:05.542Z,1027.61
2023-03-29T06:47:15.592Z,1027.47
2023-03-29T06:47:25.725Z,1027.62
2023-03-29T06:47:35.856Z,1027.71
2023-03-29T06:47:46.199Z,1027.60
2023-03-29T06:47:56.189Z,1027.52
2023-03-29T06:48:06.848Z,1027.52
2023-03-29T06:48:16.405Z,1027.57
2023-03-29T06:48:26.736Z,1027.54
2023-03-29T06:48:36.598Z,1027.58
2023-03-29T06:48:46.841Z,1027.72
2023-03-29T06:48:56.879Z,1027.30
2023-03-29T06:49:07.063Z,1027.26
2023-03-29T06:49:17.262Z,1027.32
2023-03-29T06:49:27.460Z,1027.40
2023-03-29T06:49:37.440Z,1027.24
2023-03-29T06:49:47.602Z,1027.16
2023-03-29T06:49:57.667Z,1027.30
2023-03-29T06:50:07.971Z,1027.39
2023-03-29T06:50:18.075Z,1027.32
2023-03-29T06:50:28.028Z,1027.37
2023-03-29T06:50:38.201Z,1027.29
2023-03-29T06:50:48.312Z,1027.42
2023-03-29T06:50:58.512Z,1027.46
2023-03-29T06:51:08.583Z,1027.50
2023-03-29T06:51:20.075Z,1027.34
2023-03-29T06:51:28.932Z,1027.46
2023-03-29T06:51:38.984Z,1027.40
2023-03-29T06:51:49.150Z,1027.37
2023-03-29T06:51:59.251Z,1027.42
2023-03-29T06:52:09.437Z,1027.36
2023-03-29T06:52:19.502Z,1027.35
2023-03-29T06:52:29.695Z,1027.23
2023-03-29T06:52:39.606Z,1027.23
2023-03-29T06:52:49.863Z,1027.16
2023-03-29T06:52:59.980Z,1027.37
2023-03-29T06:53:10.057Z,1027.34
2023-03-29T06:53:20.840Z,1027.22
2023-03-29T06:53:30.300Z,1027.31
2023-03-29T06:53:40.484Z,1027.32
2023-03-29T06:53:50.729Z,1027.34
2023-03-29T06:54:00.965Z,1027.24
2023-03-29T06:54:10.927Z,1027.29
2023-03-29T06:54:21.028Z,1027.31
2023-03-29T06:54:31.249Z,1027.31
2023-03-29T06:54:41.215Z,1027.32
2023-03-29T06:54:51.532Z,1027.29
2023-03-29T06:55:01.595Z,1027.30
2023-03-29T06:55:11.755Z,1027.40
2023-03-29T06:55:22.364Z,1027.28
2023-03-29T06:55:32.084Z,1027.33
2023-03-29T06:55:42.079Z,1027.32
2023-03-29T06:55:52.265Z,1027.25
2023-03-29T06:56:02.323Z,1027.21
2023-03-29T06:56:12.438Z,1027.15
2023-03-29T06:56:22.554Z,1027.08
2023-03-29T06:56:32.787Z,1027.18
2023-03-29T06:56:42.798Z,1027.26
2023-03-29T06:56:53.037Z,1027.34
2023-03-29T06:57:03.007Z,1027.42
2023-03-29T06:57:13.163Z,1027.51
2023-03-29T06:57:23.372Z,1027.13
2023-03-29T06:57:33.787Z,1027.24
2023-03-29T06:57:43.570Z,1027.28
2023-03-29T06:57:53.721Z,1027.44
2023-03-29T06:58:03.691Z,1027.56
2023-03-29T06:58:13.912Z,1027.34
2023-03-29T06:58:23.986Z,1027.35
2023-03-29T06:58:34.318Z,1027.42
2023-03-29T06:58:44.254Z,1027.53
2023-03-29T06:58:54.327Z,1027.40
2023-03-29T06:59:04.502Z,1027.34
2023-03-29T06:59:14.652Z,1027.33
2023-03-29T06:59:24.719Z,1027.20
2023-03-29T06:59:34.858Z,1027.23
2023-03-29T06:59:44.922Z,1027.41
2023-03-29T06:59:55.103Z,1027.33
2023-03-29T07:00:05.129Z,1027.36
2023-03-29T07:00:15.441Z,1027.38
2023-03-29T07:00:25.372Z,1027.40
2023-03-29T07:00:35.620Z,1027.41
2023-03-29T07:00:45.630Z,1027.42
2023-03-29T07:00:55.686Z,1027.36
2023-03-29T07:01:05.995Z,1027.34
2023-03-29T07:01:15.939Z,1027.34
2023-03-29T07:01:26.071Z,1027.29
2023-03-29T07:01:36.205Z,1027.31
2023-03-29T07:01:46.354Z,1027.28
2023-03-29T07:01:56.489Z,1027.36
2023-03-29T07:02:06.610Z,1027.25
2023-03-29T07:02:16.824Z,1027.47
2023-03-29T07:02:26.744Z,1027.41
2023-03-29T07:02:36.900Z,1027.40
2023-03-29T07:02:47.013Z,1027.33
2023-03-29T07:02:57.072Z,1027.28
2023-03-29T07:03:07.204Z,1027.17
2023-03-29T07:03:17.299Z,1027.18
2023-03-29T07:03:27.560Z,1027.02
2023-03-29T07:03:37.752Z,1027.23
2023-03-29T07:03:47.729Z,1026.99
2023-03-29T07:03:57.834Z,1027.06
2023-03-29T07:04:08.018Z,1027.02
2023-03-29T07:04:18.160Z,1027.06
2023-03-29T07:04:28.255Z,1027.07
2023-03-29T07:04:38.422Z,1027.02
2023-03-29T07:04:48.523Z,1026.96
2023-03-29T07:04:58.626Z,1027.02
2023-03-29T07:05:08.733Z,1027.01
2023-03-29T07:05:18.858Z,1027.08
2023-03-29T07:05:28.984Z,1026.98
2023-03-29T07:05:39.280Z,1026.90
2023-03-29T07:05:49.232Z,1027.04
2023-03-29T07:05:59.362Z,1027.04
2023-03-29T07:06:09.437Z,1026.87
2023-03-29T07:06:19.772Z,1026.97
2023-03-29T07:06:29.753Z,1026.94
2023-03-29T07:06:39.830Z,1027.06
2023-03-29T07:06:49.863Z,1027.00
2023-03-29T07:07:00.119Z,1026.96
2023-03-29T07:07:10.266Z,1026.88
2023-03-29T07:07:20.504Z,1026.99
2023-03-29T07:07:30.518Z,1026.94
2023-03-29T07:07:40.545Z,1027.01
2023-03-29T07:07:50.674Z,1026.88
2023-03-29T07:08:00.843Z,1026.93
2023-03-29T07:08:11.145Z,1026.94
2023-03-29T07:08:21.216Z,1026.97
2023-03-29T07:08:31.196Z,1026.96
2023-03-29T07:08:41.364Z,1026.97
2023-03-29T07:08:51.461Z,1026.91
2023-03-29T07:09:01.611Z,1026.89
2023-03-29T07:09:11.712Z,1026.94
2023-03-29T07:09:21.963Z,1027.03
2023-03-29T07:09:32.071Z,1026.86
2023-03-29T07:09:42.153Z,1026.95
2023-03-29T07:09:52.095Z,1026.91
2023-03-29T07:10:02.210Z,1026.90
2023-03-29T07:10:12.383Z,1026.86
2023-03-29T07:10:22.520Z,1026.86
2023-03-29T07:10:32.788Z,1026.85
2023-03-29T07:10:42.709Z,1026.85
2023-03-29T07:10:52.756Z,1026.80
2023-03-29T07:11:03.107Z,1026.78
2023-03-29T07:11:13.053Z,1026.91
2023-03-29T07:11:23.209Z,1026.97
2023-03-29T07:11:33.444Z,1026.87
2023-03-29T07:11:43.426Z,1026.97
2023-03-29T07:11:53.586Z,1026.71
2023-03-29T07:12:03.648Z,1026.81
2023-03-29T07:12:13.990Z,1026.89
2023-03-29T07:12:24.047Z,1026.72
2023-03-29T07:12:34.163Z,1026.71
2023-03-29T07:12:44.287Z,1026.81
2023-03-29T07:12:54.335Z,1026.80
2023-03-29T07:13:04.441Z,1026.76
2023-03-29T07:13:14.560Z,1026.76
2023-03-29T07:13:24.820Z,1026.80
2023-03-29T07:13:34.793Z,1026.73
2023-03-29T07:13:44.925Z,1026.89
2023-03-29T07:13:55.130Z,1026.68
2023-03-29T07:14:05.233Z,1026.77
2023-03-29T07:14:15.286Z,1026.82
2023-03-29T07:14:25.358Z,1026.68
2023-03-29T07:14:35.520Z,1026.59
2023-03-29T07:14:46.578Z,1026.61
2023-03-29T07:14:55.826Z,1026.59
2023-03-29T07:15:05.838Z,1026.59
2023-03-29T07:15:16.052Z,1026.56
2023-03-29T07:15:26.845Z,1026.58
2023-03-29T07:15:36.998Z,1026.55
2023-03-29T07:15:46.347Z,1026.52
2023-03-29T07:15:56.404Z,1026.30
2023-03-29T07:16:06.498Z,1026.28
2023-03-29T07:16:16.682Z,1026.37
2023-03-29T07:16:26.886Z,1026.39
2023-03-29T07:16:37.055Z,1026.39
2023-03-29T07:16:47.087Z,1026.43
2023-03-29T07:16:57.146Z,1026.37
2023-03-29T07:17:07.262Z,1026.33
2023-03-29T07:17:17.436Z,1026.38
2023-03-29T07:17:27.452Z,1026.35
2023-03-29T07:17:37.638Z,1026.51
2023-03-29T07:17:47.776Z,1026.41
2023-03-29T07:17:57.918Z,1026.45
2023-03-29T07:18:07.991Z,1026.42
2023-03-29T07:18:18.313Z,1026.44
2023-03-29T07:18:28.245Z,1026.48
2023-03-29T07:18:38.427Z,1026.44
2023-03-29T07:18:48.424Z,1026.47
2023-03-29T07:18:58.694Z,1026.43
2023-03-29T07:19:08.753Z,1026.47
2023-03-29T07:19:18.949Z,1026.40
2023-03-29T07:19:29.045Z,1026.42
2023-03-29T07:19:39.154Z,1026.42
2023-03-29T07:19:49.235Z,1026.60
2023-03-29T07:19:59.461Z,1026.62
2023-03-29T07:20:09.628Z,1026.54
2023-03-29T07:20:19.657Z,1026.59
2023-03-29T07:20:29.828Z,1026.44
2023-03-29T07:20:39.985Z,1026.47
2023-03-29T07:20:50.063Z,1026.71
2023-03-29T07:21:00.561Z,1026.61
2023-03-29T07:21:10.443Z,1026.33
2023-03-29T07:21:20.530Z,1026.47
2023-03-29T07:21:30.655Z,1026.52
2023-03-29T07:21:40.783Z,1026.58
2023-03-29T07:21:50.901Z,1026.57
2023-03-29T07:22:01.131Z,1026.58
2023-03-29T07:22:11.235Z,1026.66
2023-03-29T07:22:21.224Z,1026.82
2023-03-29T07:22:31.302Z,1026.64
2023-03-29T07:22:41.499Z,1026.56
2023-03-29T07:22:51.516Z,1026.49
2023-03-29T07:23:01.621Z,1026.65
2023-03-29T07:23:11.753Z,1026.65
2023-03-29T07:23:21.827Z,1026.56
2023-03-29T07:23:31.915Z,1026.38
2023-03-29T07:23:42.057Z,1026.56
2023-03-29T07:23:52.113Z,1026.55
2023-03-29T07:24:02.265Z,1026.46
2023-03-29T07:24:12.402Z,1026.57
2023-03-29T07:24:22.525Z,1026.53
2023-03-29T07:24:32.551Z,1026.65
2023-03-29T07:24:42.710Z,1026.55
2023-03-29T07:24:52.965Z,1026.54
2023-03-29T07:25:02.972Z,1026.65
2023-03-29T07:25:13.053Z,1026.42
2023-03-29T07:25:23.230Z,1026.48
2023-03-29T07:25:33.368Z,1026.73
2023-03-29T07:25:43.523Z,1026.63
2023-03-29T07:25:53.637Z,1026.63
2023-03-29T07:26:03.769Z,1026.63
2023-03-29T07:26:13.880Z,1026.56
2023-03-29T07:26:34.466Z,1026.55
2023-03-29T07:26:46.304Z,1026.47
2023-03-29T07:27:04.029Z,1026.49
2023-03-29T07:27:10.145Z,1026.47
2023-03-29T07:27:18.713Z,1026.45
2023-03-29T07:27:28.826Z,1026.54
2023-03-29T07:27:39.025Z,1026.45
2023-03-29T07:27:49.150Z,1026.45
2023-03-29T07:27:59.364Z,1026.45
2023-03-29T07:28:10.692Z,1026.41
2023-03-29T07:28:19.677Z,1026.42
2023-03-29T07:28:29.625Z,1026.57
2023-03-29T07:28:39.790Z,1026.44
2023-03-29T07:28:49.862Z,1026.39
2023-03-29T07:29:00.052Z,1026.29
2023-03-29T07:29:20.320Z,1026.40
2023-03-29T07:29:30.396Z,1026.37
2023-03-29T07:29:40.525Z,1026.21
2023-03-29T07:29:50.761Z,1026.28
2023-03-29T07:30:00.726Z,1026.27
2023-03-29T07:30:10.992Z,1026.30
2023-03-29T07:30:21.088Z,1026.24
2023-03-29T07:30:32.369Z,1026.10
2023-03-29T07:30:41.344Z,1026.41
2023-03-29T07:30:51.464Z,1025.98
2023-03-29T07:31:01.843Z,1026.08
2023-03-29T07:31:11.643Z,1026.22
2023-03-29T07:31:21.782Z,1026.14
2023-03-29T07:31:31.884Z,1026.18
2023-03-29T07:31:41.915Z,1026.04
2023-03-29T07:31:52.127Z,1025.98
2023-03-29T07:32:02.211Z,1025.98
2023-03-29T07:32:12.269Z,1026.01
2023-03-29T07:32:22.406Z,1025.93
2023-03-29T07:32:32.493Z,1026.16
2023-03-29T07:32:42.822Z,1026.14
2023-03-29T07:32:52.989Z,1026.17
2023-03-29T07:33:02.940Z,1026.31
2023-03-29T07:33:13.095Z,1026.22
2023-03-29T07:33:23.256Z,1026.53
2023-03-29T07:33:33.286Z,1026.40
2023-03-29T07:33:43.437Z,1026.29
2023-03-29T07:33:53.560Z,1026.36
2023-03-29T07:34:03.674Z,1026.47
2023-03-29T07:34:13.800Z,1026.43
2023-03-29T07:34:23.953Z,1026.57
2023-03-29T07:34:34.042Z,1026.51
2023-03-29T07:34:44.383Z,1026.67
2023-03-29T07:34:54.403Z,1026.76
2023-03-29T07:35:04.446Z,1026.90
2023-03-29T07:35:14.556Z,1026.90
2023-03-29T07:35:24.778Z,1026.93
2023-03-29T07:35:35.001Z,1026.85
